createdAt,value
2022-09-15T00:00:31.174Z,66.44
2022-09-15T00:05:33.830Z,66.53
2022-09-15T00:10:37.867Z,66.52
2022-09-15T00:15:40.688Z,66.30
2022-09-15T00:20:45.171Z,66.32
2022-09-15T00:25:50.733Z,65.98
2022-09-15T00:30:54.915Z,66.18
2022-09-15T00:35:57.793Z,66.08
2022-09-15T00:41:02.363Z,66.12
2022-09-15T00:46:05.186Z,66.05
2022-09-15T00:51:09.668Z,66.31
2022-09-15T00:56:15.538Z,66.33
2022-09-15T01:01:18.709Z,66.44
2022-09-15T01:06:26.457Z,66.49
2022-09-15T01:11:31.229Z,66.17
2022-09-15T01:16:41.393Z,66.25
2022-09-15T01:21:46.791Z,66.46
2022-09-15T01:27:00.097Z,66.12
2022-09-15T01:32:26.148Z,66.37
2022-09-15T01:37:31.670Z,66.04
2022-09-15T01:42:35.225Z,66.00
2022-09-15T01:47:40.563Z,66.11
2022-09-15T01:52:45.681Z,65.94
2022-09-15T01:57:48.462Z,66.00
2022-09-15T02:02:57.813Z,65.92
2022-09-15T02:08:05.080Z,66.11
2022-09-15T02:13:13.179Z,66.20
2022-09-15T02:18:19.224Z,65.96
2022-09-15T02:23:26.827Z,66.27
2022-09-15T02:28:32.019Z,66.02
2022-09-15T02:33:38.753Z,65.93
2022-09-15T02:38:46.387Z,66.27
2022-09-15T02:43:50.246Z,66.36
2022-09-15T02:48:54.334Z,66.23
2022-09-15T02:53:57.029Z,66.33
2022-09-15T02:58:59.769Z,66.13
2022-09-15T03:04:05.188Z,66.17
2022-09-15T03:09:08.981Z,65.91
2022-09-15T03:14:11.845Z,65.96
2022-09-15T03:19:15.966Z,66.05
2022-09-15T03:24:19.715Z,65.96
2022-09-15T03:29:22.479Z,66.20
2022-09-15T03:34:26.701Z,65.82
2022-09-15T03:39:29.484Z,65.68
2022-09-15T03:44:32.260Z,65.70
2022-09-15T03:49:40.223Z,65.47
2022-09-15T03:54:42.947Z,65.70
2022-09-15T03:59:45.653Z,65.30
2022-09-15T04:04:49.745Z,65.26
2022-09-15T04:09:52.540Z,65.38
2022-09-15T04:14:55.490Z,65.22
2022-09-15T04:19:59.620Z,65.03
2022-09-15T04:25:02.365Z,65.00
2022-09-15T04:30:05.974Z,65.13
2022-09-15T04:35:11.104Z,64.97
2022-09-15T04:40:14.134Z,64.91
2022-09-15T04:45:17.051Z,64.81
2022-09-15T04:50:21.071Z,65.06
2022-09-15T04:55:23.770Z,65.04
2022-09-15T05:00:27.033Z,64.78
2022-09-15T05:05:31.104Z,64.57
2022-09-15T05:10:34.105Z,64.91
2022-09-15T05:15:36.867Z,64.86
2022-09-15T05:20:40.897Z,64.85
2022-09-15T05:25:43.585Z,64.91
2022-09-15T05:30:46.274Z,64.63
2022-09-15T05:35:53.868Z,64.69
2022-09-15T05:41:02.812Z,64.23
2022-09-15T05:46:06.501Z,64.37
2022-09-15T05:51:10.724Z,64.34
2022-09-15T05:56:14.947Z,64.22
2022-09-15T06:01:19.353Z,64.13
2022-09-15T06:06:24.342Z,64.13
2022-09-15T06:11:28.643Z,64.00
2022-09-15T06:16:33.352Z,63.96
2022-09-15T06:21:37.507Z,63.94
2022-09-15T06:26:40.336Z,63.90
2022-09-15T06:31:43.074Z,63.96
2022-09-15T06:36:47.210Z,64.17
2022-09-15T06:42:02.339Z,63.82
2022-09-15T06:47:07.262Z,63.97
2022-09-15T06:52:11.415Z,63.73
2022-09-15T06:57:14.264Z,63.68
2022-09-15T07:02:17.017Z,63.36
2022-09-15T07:07:21.186Z,63.40
2022-09-15T07:12:23.859Z,63.16
2022-09-15T07:17:27.292Z,63.23
2022-09-15T07:22:31.586Z,63.36
2022-09-15T07:27:34.252Z,63.35
2022-09-15T07:32:37.302Z,62.95
2022-09-15T07:37:41.337Z,63.07
2022-09-15T07:42:44.354Z,62.98
2022-09-15T07:47:47.113Z,62.88
2022-09-15T07:52:51.206Z,62.71
2022-09-15T07:57:59.956Z,62.60
2022-09-15T08:03:02.656Z,62.48
2022-09-15T08:08:06.965Z,62.18
2022-09-15T08:13:09.742Z,61.87
2022-09-15T08:18:12.572Z,61.87
2022-09-15T08:23:16.668Z,61.82
2022-09-15T08:28:19.392Z,61.62
2022-09-15T08:33:22.363Z,61.65
2022-09-15T08:38:26.497Z,61.54
2022-09-15T08:43:32.513Z,61.09
2022-09-15T08:48:39.860Z,61.42
2022-09-15T08:53:46.776Z,61.23
2022-09-15T08:58:50.795Z,61.08
2022-09-15T09:04:23.935Z,60.80
2022-09-15T09:09:34.061Z,60.44
2022-09-15T09:14:45.971Z,60.54
2022-09-15T09:19:59.222Z,60.37
2022-09-15T09:25:21.131Z,60.05
2022-09-15T09:30:30.619Z,59.66
2022-09-15T09:35:35.528Z,59.53
2022-09-15T09:40:41.413Z,59.55
2022-09-15T09:45:45.859Z,59.61
2022-09-15T09:50:49.613Z,59.57
2022-09-15T09:55:55.101Z,59.62
2022-09-15T10:01:10.630Z,60.01
2022-09-15T10:06:18.178Z,59.73
2022-09-15T10:11:23.977Z,59.74
2022-09-15T10:16:27.603Z,59.82
2022-09-15T10:21:30.416Z,59.66
2022-09-15T10:26:36.007Z,59.63
2022-09-15T10:31:38.735Z,59.58
2022-09-15T10:36:41.493Z,59.20
2022-09-15T10:41:49.062Z,59.37
2022-09-15T10:47:05.740Z,58.97
2022-09-15T10:52:15.080Z,59.06
2022-09-15T10:57:33.096Z,58.81
2022-09-15T11:03:06.874Z,58.24
2022-09-15T11:08:38.636Z,58.59
2022-09-15T11:13:51.270Z,58.52
2022-09-15T11:19:03.735Z,58.27
2022-09-15T11:24:25.203Z,58.22
2022-09-15T11:29:32.219Z,58.10
2022-09-15T11:34:37.600Z,57.85
2022-09-15T11:39:45.600Z,57.59
2022-09-15T11:44:49.834Z,57.70
2022-09-15T11:49:57.072Z,57.46
2022-09-15T11:55:04.682Z,57.54
2022-09-15T12:00:13.410Z,57.83
2022-09-15T12:05:19.479Z,57.86
2022-09-15T12:10:24.758Z,57.90
2022-09-15T12:15:29.400Z,57.90
2022-09-15T12:20:37.015Z,57.96
2022-09-15T12:25:45.064Z,57.80
2022-09-15T12:30:50.412Z,57.95
2022-09-15T12:35:53.252Z,57.96
2022-09-15T12:40:58.950Z,58.19
2022-09-15T12:46:03.272Z,57.98
2022-09-15T12:51:10.363Z,58.61
2022-09-15T12:56:23.569Z,58.92
2022-09-15T13:01:49.747Z,59.17
2022-09-15T13:07:24.938Z,59.09
2022-09-15T13:12:32.082Z,59.14
2022-09-15T13:17:36.364Z,59.03
2022-09-15T13:22:43.953Z,58.99
2022-09-15T13:27:49.656Z,59.18
2022-09-15T13:32:58.840Z,59.22
2022-09-15T13:38:32.406Z,59.12
2022-09-15T13:43:50.423Z,59.25
2022-09-15T13:49:19.304Z,58.99
2022-09-15T13:54:22.049Z,58.77
2022-09-15T13:59:28.349Z,58.80
2022-09-15T14:04:32.920Z,58.57
2022-09-15T14:09:39.782Z,58.49
2022-09-15T14:14:44.535Z,58.51
2022-09-15T14:19:49.932Z,58.34
2022-09-15T14:24:54.024Z,58.13
2022-09-15T14:29:58.369Z,57.99
2022-09-15T14:35:06.448Z,58.19
2022-09-15T14:40:19.955Z,58.16
2022-09-15T14:50:57.669Z,58.09
2022-09-15T14:56:07.897Z,58.17
2022-09-15T15:01:15.642Z,58.11
2022-09-15T15:06:29.455Z,58.04
2022-09-15T15:11:34.516Z,57.77
2022-09-15T15:16:38.090Z,57.81
2022-09-15T15:21:43.636Z,57.75
2022-09-15T15:26:47.154Z,57.59
2022-09-15T15:31:49.951Z,57.62
2022-09-15T15:37:03.298Z,57.83
2022-09-15T15:42:08.934Z,57.50
2022-09-15T15:47:25.539Z,57.48
2022-09-15T15:52:29.619Z,57.43
2022-09-15T15:57:36.311Z,57.59
2022-09-15T16:02:39.050Z,57.33
2022-09-15T16:07:43.897Z,57.38
2022-09-15T16:12:46.650Z,57.48
2022-09-15T16:17:49.828Z,57.30
2022-09-15T16:22:53.959Z,57.47
2022-09-15T16:27:56.788Z,57.52
2022-09-15T16:32:59.618Z,57.35
2022-09-15T16:38:03.718Z,57.54
2022-09-15T16:43:11.076Z,57.82
2022-09-15T16:48:14.008Z,57.78
2022-09-15T16:53:19.668Z,58.01
2022-09-15T16:58:23.163Z,58.27
2022-09-15T17:03:26.947Z,58.45
2022-09-15T17:08:32.652Z,58.83
2022-09-15T17:13:35.471Z,59.00
2022-09-15T17:18:38.183Z,59.10
2022-09-15T17:23:44.590Z,59.25
2022-09-15T17:28:47.785Z,58.98
2022-09-15T17:33:53.037Z,59.22
2022-09-15T17:38:57.138Z,59.29
2022-09-15T17:43:59.898Z,59.33
2022-09-15T17:49:02.589Z,59.42
2022-09-15T17:54:07.403Z,59.19
2022-09-15T17:59:13.073Z,59.29
2022-09-15T18:04:18.919Z,59.73
2022-09-15T18:09:23.039Z,59.65
2022-09-15T18:14:25.798Z,59.46
2022-09-15T18:19:28.594Z,59.65
2022-09-15T18:24:32.643Z,59.49
2022-09-15T18:29:35.445Z,59.43
2022-09-15T18:34:38.183Z,59.47
2022-09-15T18:39:42.345Z,59.46
2022-09-15T18:44:45.222Z,59.41
2022-09-15T18:49:47.987Z,59.45
2022-09-15T18:54:55.981Z,58.91
2022-09-15T18:59:58.705Z,59.12
2022-09-15T19:05:01.433Z,59.24
2022-09-15T19:10:06.258Z,59.26
2022-09-15T19:15:11.258Z,59.23
2022-09-15T19:20:15.996Z,59.04
2022-09-15T19:25:21.363Z,59.14
2022-09-15T19:30:24.092Z,59.21
2022-09-15T19:35:26.832Z,59.08
2022-09-15T19:40:31.519Z,59.31
2022-09-15T19:45:35.152Z,59.11
2022-09-15T19:50:39.256Z,59.17
2022-09-15T19:55:43.375Z,59.16
2022-09-15T20:00:52.976Z,58.91
2022-09-15T20:05:57.596Z,58.82
2022-09-15T20:11:05.380Z,58.67
2022-09-15T20:16:08.911Z,58.50
2022-09-15T20:21:21.756Z,58.59
2022-09-15T20:26:32.014Z,58.52
2022-09-15T20:31:35.038Z,58.62
2022-09-15T20:36:39.347Z,58.44
2022-09-15T20:41:45.668Z,58.59
2022-09-15T20:46:48.495Z,58.64
2022-09-15T20:51:51.606Z,58.82
2022-09-15T20:56:55.855Z,59.09
2022-09-15T21:01:58.658Z,58.91
2022-09-15T21:07:01.425Z,58.87
2022-09-15T21:12:06.054Z,59.00
2022-09-15T21:17:08.757Z,59.10
2022-09-15T21:22:11.495Z,58.74
2022-09-15T21:27:27.377Z,58.61
2022-09-15T21:32:30.299Z,58.85
2022-09-15T21:37:33.109Z,58.98
2022-09-15T21:42:37.282Z,58.94
2022-09-15T21:47:39.919Z,58.71
2022-09-15T21:52:42.614Z,58.94
2022-09-15T21:57:47.055Z,58.59
2022-09-15T22:02:52.212Z,58.68
2022-09-15T22:07:55.161Z,58.37
2022-09-15T22:13:04.087Z,58.30
2022-09-15T22:18:07.383Z,58.38
2022-09-15T22:23:10.332Z,57.98
2022-09-15T22:28:14.380Z,58.35
2022-09-15T22:33:17.129Z,58.86
2022-09-15T22:38:19.898Z,59.28
2022-09-15T22:43:24.521Z,59.10
2022-09-15T22:48:27.226Z,59.44
2022-09-15T22:53:29.911Z,59.15
2022-09-15T22:58:34.277Z,59.49
2022-09-15T23:03:37.082Z,59.36
2022-09-15T23:08:39.936Z,59.43
2022-09-15T23:13:44.033Z,59.53
2022-09-15T23:18:46.840Z,59.25
2022-09-15T23:23:50.309Z,59.38
2022-09-15T23:28:54.733Z,59.34
2022-09-15T23:33:57.495Z,59.54
2022-09-15T23:39:00.298Z,59.30
2022-09-15T23:44:05.005Z,59.38
2022-09-15T23:49:07.812Z,59.48
2022-09-15T23:54:11.222Z,59.27
2022-09-15T23:59:15.455Z,59.59
